Latest Weather Observations for Moss Vale

IDN60801

Issued at 3:32 pm EST Saturday 28 May 2016 (issued every 30 minutes, with the page automatically refreshed every 10 minutes)

About weather observations | Map of weather stations | Latest weather observations for NSW | Other Formats
Station Details ID: 068239 Name: MOSS VALE AWS Lat: -34.53 Lon: 150.42 Height: 678.4 m
Data from the previous 72 hours. | See also: Recent months at Moss Vale
Date/Time
EST
Temp
°C
App
Temp
°C
Dew
Point
Rel
Hum
%
Delta-T
°C
Wind Press
QNH
hPa
Press
MSL
hPa
Rain
since 9 am
mm
Dir
 
Spd
km/h
Gust
km/h
Spd
kts
Gust
kts
28/03:00pm 8.5 1.2 4.7 77 1.8 W 32 50 17 27 1006.1 1005.8 2.2
28/02:55pm 8.4 1.1 4.6 77 1.8 W 32 50 17 27 1006.1 1005.8 2.2
28/02:30pm 8.0 0.8 4.8 80 1.5 WSW 32 44 17 24 1006.2 1005.9 2.2
28/02:00pm 7.7 0.7 6.0 89 0.8 WSW 32 50 17 27 1005.9 1005.5 2.2
28/01:53pm 7.5 0.8 5.8 89 0.8 WSW 30 50 16 27 1005.8 1005.4 2.2
28/01:47pm 8.4 2.9 7.5 94 0.4 WSW 26 43 14 23 1005.8 1005.4 2.2
28/01:31pm 8.0 3.1 7.1 94 0.4 WSW 22 33 12 18 1005.7 1005.3 2.2
28/01:30pm 7.8 2.8 6.6 92 0.6 WSW 22 33 12 18 1005.7 1005.3 2.2
28/01:00pm 7.8 2.8 6.6 92 0.6 WSW 22 33 12 18 1005.6 1005.2 2.2
28/12:30pm 7.1 2.7 6.5 96 0.3 WSW 19 24 10 13 1005.8 1005.4 2.2
28/12:00pm 6.1 1.3 5.4 95 0.3 WSW 20 28 11 15 1005.9 1005.5 2.2
28/11:30am 5.9 0.7 5.3 96 0.3 WSW 22 30 12 16 1006.3 1006.0 1.4
28/11:00am 6.4 0.1 5.5 94 0.4 W 28 37 15 20 1006.5 1006.2 0.6
28/10:30am 7.1 0.6 4.6 84 1.1 W 28 39 15 21 1006.7 1006.4 0.2
28/10:00am 8.0 2.6 4.6 79 1.6 W 22 28 12 15 1006.6 1006.3 0.0
28/09:30am 8.8 5.2 5.0 77 1.8 W 13 19 7 10 1006.6 1006.3 0.0
28/09:00am 8.1 4.5 4.9 80 1.5 WSW 13 17 7 9 1006.7 1006.4 0.0
28/08:30am 7.8 4.0 5.9 88 0.9 W 15 20 8 11 1006.7 1006.4 0.0
28/08:00am 6.7 3.7 5.8 94 0.4 W 11 13 6 7 1006.6 1006.3 0.0
28/07:30am 5.4 3.2 5.1 98 0.1 WNW 6 9 3 5 1006.6 1006.3 0.0
28/07:00am 4.6 2.1 3.9 95 0.3 W 6 7 3 4 1006.6 1006.3 0.0
28/06:30am 5.5 2.6 4.8 95 0.3 WNW 9 11 5 6 1006.5 1006.2 0.0
28/06:00am 5.6 2.0 4.9 95 0.3 WSW 13 17 7 9 1006.4 1006.1 0.0
28/05:30am 5.4 1.7 4.5 94 0.4 W 13 15 7 8 1006.4 1006.1 0.0
28/05:00am 5.5 1.5 4.8 95 0.3 WSW 15 22 8 12 1006.3 1006.0 0.0
28/04:30am 5.4 1.3 4.5 94 0.4 WSW 15 20 8 11 1006.3 1006.0 0.0
28/04:00am 5.7 0.7 4.5 92 0.5 W 20 26 11 14 1006.4 1006.1 0.0
28/03:30am 5.4 0.4 3.6 88 0.8 W 19 28 10 15 1006.2 1005.9 0.0
28/03:00am 5.4 0.1 2.9 84 1.1 W 20 28 11 15 1006.2 1005.9 0.0
28/02:30am 5.4 -0.3 2.6 82 1.2 W 22 33 12 18 1006.6 1006.3 0.0
28/02:00am 5.5 -0.6 2.5 81 1.3 WSW 24 30 13 16 1006.7 1006.4 0.0
28/01:30am 5.5 -0.7 2.3 80 1.4 W 24 32 13 17 1006.9 1006.5 0.0
28/01:00am 5.7 -2.0 2.2 78 1.5 WSW 32 46 17 25 1006.5 1006.2 0.0
28/12:30am 5.7 -2.2 2.0 77 1.6 W 33 48 18 26 1006.9 1006.5 0.0
28/12:10am 5.7 -2.7 1.8 76 1.6 WSW 35 56 19 30 1007.1 1006.7 0.0
28/12:00am 5.6 -3.1 1.7 76 1.6 WSW 37 50 20 27 1007.1 1006.7 0.0
 
Date/Time
EST
Temp
°C
App
Temp
°C
Dew
Point
Rel
Hum
%
Delta-T
°C
Wind Press
QNH
hPa
Press
MSL
hPa
Rain
since 9 am
mm
Dir
 
Spd
km/h
Gust
km/h
Spd
kts
Gust
kts
27/11:30pm 5.6 -2.8 1.7 76 1.6 WSW 35 48 19 26 1007.5 1007.2 0.0
27/11:08pm 5.8 -2.6 1.7 75 1.7 W 35 54 19 29 1007.2 1006.8 0.0
27/11:00pm 5.7 -2.3 1.6 75 1.7 W 33 50 18 27 1007.3 1006.9 0.0
27/10:30pm 5.8 -2.7 1.2 72 1.9 W 35 52 19 28 1007.2 1006.8 0.0
27/10:00pm 6.2 -2.7 0.7 68 2.3 WSW 37 56 20 30 1006.9 1006.5 0.0
27/09:52pm 6.4 -2.2 0.5 66 2.4 WSW 35 56 19 30 1006.9 1006.5 0.0
27/09:30pm 6.5 -2.8 0.8 67 2.4 W 39 54 21 29 1007.0 1006.6 0.0
27/09:00pm 6.6 -2.0 0.5 65 2.5 W 35 54 19 29 1007.0 1006.6 0.0
27/08:30pm 6.8 -2.5 0.7 65 2.5 WSW 39 61 21 33 1006.6 1006.3 0.0
27/08:00pm 7.1 -3.0 0.5 63 2.7 WSW 43 61 23 33 1006.0 1005.6 0.0
27/07:35pm 7.3 -2.7 0.7 63 2.7 WSW 43 70 23 38 1005.9 1005.5 0.0
27/07:30pm 7.2 -2.9 0.6 63 2.7 WSW 43 57 23 31 1006.0 1005.6 0.0
27/07:00pm 7.2 -2.5 0.4 62 2.8 WSW 41 63 22 34 1005.5 1005.1 0.0
27/06:30pm 7.6 -3.1 0.3 60 3.0 WSW 46 69 25 37 1004.5 1004.1 0.0
27/06:00pm 7.6 -2.7 0.3 60 3.0 WSW 44 67 24 36 1004.4 1004.0 0.0
27/05:30pm 7.8 -2.5 0.3 59 3.1 WSW 44 76 24 41 1003.8 1003.4 0.0
27/05:23pm 8.0 -2.6 0.5 59 3.1 WSW 46 78 25 42 1003.4 1003.0 0.0
27/05:20pm 7.8 -2.9 0.1 58 3.2 WSW 46 78 25 42 1003.8 1003.4 0.0
27/05:00pm 8.2 -3.3 0.0 56 3.4 WSW 50 76 27 41 1003.0 1002.6 0.0
27/04:30pm 8.7 -0.3 0.2 55 3.5 WSW 37 63 20 34 1002.7 1002.3 0.0
27/04:21pm 8.8 -1.0 0.0 54 3.6 WSW 41 61 22 33 1002.8 1002.4 0.0
27/04:00pm 9.2 -3.6 -0.9 49 4.1 WSW 56 83 30 45 1002.5 1002.1 0.0
27/03:30pm 9.5 -1.2 0.1 52 3.9 WSW 46 69 25 37 1001.9 1001.5 0.0
27/03:00pm 9.8 -0.9 0.4 52 4.0 WSW 46 69 25 37 1001.7 1001.3 0.0
27/02:30pm 10.2 -1.3 0.0 49 4.3 WSW 50 74 27 40 1001.4 1001.0 0.0
27/02:00pm 9.8 -2.1 -0.1 50 4.2 WSW 52 78 28 42 1000.7 1000.2 0.0
27/01:30pm 9.7 -3.0 -0.5 49 4.2 WSW 56 82 30 44 1000.9 1000.4 0.0
27/01:00pm 9.6 -1.5 0.0 51 4.0 WSW 48 70 26 38 1001.2 1000.8 0.0
27/12:30pm 9.7 -2.5 0.1 51 4.0 WSW 54 78 29 42 1001.3 1000.9 0.0
27/12:00pm 9.2 -3.0 0.1 53 3.8 WSW 54 78 29 42 1001.8 1001.4 0.0
27/11:30am 9.7 -1.6 1.4 56 3.6 WSW 50 83 27 45 1001.9 1001.5 0.0
27/11:00am 9.2 -1.5 0.1 53 3.8 WSW 46 69 25 37 1001.9 1001.5 0.0
27/10:30am 9.0 -1.1 0.2 54 3.7 WSW 43 69 23 37 1002.5 1002.1 0.0
27/10:00am 8.4 -2.3 0.1 56 3.5 WSW 46 69 25 37 1002.8 1002.4 0.0
27/09:35am 8.1 -3.0 0.3 58 3.2 WSW 48 67 26 36 1003.0 1002.6 0.0
27/09:30am 7.9 -3.6 -0.1 57 3.3 WSW 50 67 27 36 1002.8 1002.4 0.0
27/09:00am 7.3 -3.0 0.3 61 2.9 W 44 69 24 37 1002.3 1001.8 0.6
27/08:30am 6.9 -3.4 0.6 64 2.6 W 44 65 24 35 1002.4 1002.0 0.6
27/08:02am 6.4 -3.3 0.5 66 2.4 WSW 41 59 22 32 1002.6 1002.2 0.6
27/08:00am 6.4 -3.3 0.7 67 2.4 WSW 41 57 22 31 1002.7 1002.3 0.6
27/07:35am 6.2 -2.3 0.7 68 2.3 WSW 35 54 19 29 1002.6 1002.2 0.6
27/07:30am 6.0 -2.5 0.8 69 2.1 WSW 35 50 19 27 1002.8 1002.4 0.6
27/07:05am 5.9 -2.1 0.7 69 2.1 WSW 32 50 17 27 1003.1 1002.7 0.6
27/07:00am 6.1 -2.1 0.6 68 2.3 WSW 33 50 18 27 1003.0 1002.6 0.6
27/06:40am 6.4 -2.5 0.7 67 2.3 WSW 37 57 20 31 1002.8 1002.4 0.6
27/06:30am 6.5 -2.8 0.8 67 2.4 WSW 39 54 21 29 1002.7 1002.3 0.6
27/06:01am 6.9 -1.5 1.4 68 2.3 WSW 35 54 19 29 1002.5 1002.1 0.6
27/06:00am 6.9 -1.5 1.6 69 2.3 WSW 35 50 19 27 1002.5 1002.1 0.6
27/05:30am 6.8 -2.0 1.1 67 2.4 WSW 37 57 20 31 1002.3 1001.8 0.6
27/05:00am 7.0 -1.4 1.3 67 2.4 WSW 35 57 19 31 1002.3 1001.8 0.6
27/04:30am 7.3 -1.4 1.8 68 2.3 W 37 57 20 31 1001.7 1001.3 0.6
27/04:00am 7.6 -1.4 2.3 69 2.3 WSW 39 63 21 34 1002.2 1001.7 0.6
27/03:40am 7.8 -0.8 2.5 69 2.3 WSW 37 57 20 31 1001.8 1001.4 0.6
27/03:30am 7.9 0.3 2.8 70 2.2 WSW 32 46 17 25 1002.0 1001.6 0.6
27/03:00am 8.0 1.2 3.1 71 2.2 WSW 28 44 15 24 1002.0 1001.6 0.6
27/02:30am 8.1 0.6 3.4 72 2.1 WSW 32 43 17 23 1002.4 1002.0 0.6
27/02:00am 8.3 1.6 3.6 72 2.1 WSW 28 41 15 22 1002.4 1002.0 0.6
27/01:41am 8.3 1.6 3.8 73 2.0 WSW 28 52 15 28 1002.3 1001.8 0.6
27/01:30am 8.1 2.5 3.6 73 2.0 WSW 22 35 12 19 1002.4 1002.0 0.6
27/01:00am 8.1 1.7 3.2 71 2.2 WSW 26 43 14 23 1002.3 1001.8 0.6
27/12:30am 7.9 1.3 2.2 67 2.5 WSW 26 41 14 22 1002.2 1001.7 0.6
27/12:00am 8.3 0.8 3.2 70 2.3 WSW 32 43 17 23 1001.7 1001.3 0.6
 
Date/Time
EST
Temp
°C
App
Temp
°C
Dew
Point
Rel
Hum
%
Delta-T
°C
Wind Press
QNH
hPa
Press
MSL
hPa
Rain
since 9 am
mm
Dir
 
Spd
km/h
Gust
km/h
Spd
kts
Gust
kts
26/11:30pm 8.7 3.2 3.9 72 2.2 WSW 22 39 12 21 1002.2 1001.7 0.6
26/11:00pm 9.1 2.1 4.1 71 2.3 WSW 30 50 16 27 1002.6 1002.2 0.6
26/10:30pm 9.9 2.7 5.1 72 2.3 WSW 32 50 17 27 1002.4 1002.0 0.6
26/10:10pm 10.0 3.6 5.4 73 2.2 WSW 28 46 15 25 1002.3 1001.8 0.6
26/10:00pm 9.8 2.7 5.4 74 2.1 WSW 32 46 17 25 1002.3 1001.8 0.6
26/09:30pm 10.1 4.2 5.9 75 2.0 WSW 26 35 14 19 1002.5 1002.1 0.6
26/09:00pm 9.9 4.4 5.9 76 1.9 WSW 24 35 13 19 1002.3 1001.8 0.6
26/08:30pm 10.3 4.2 6.5 77 1.8 WSW 28 48 15 26 1002.2 1001.7 0.6
26/08:24pm 10.1 4.0 6.4 78 1.8 WSW 28 48 15 26 1002.2 1001.7 0.6
26/08:00pm 10.0 4.6 6.3 78 1.8 WSW 24 32 13 17 1002.2 1001.7 0.6
26/07:30pm 9.8 4.0 6.3 79 1.7 WSW 26 44 14 24 1002.0 1001.6 0.6
26/07:00pm 9.9 3.4 6.4 79 1.7 W 30 39 16 21 1002.0 1001.6 0.6
26/06:30pm 10.2 4.2 7.1 81 1.5 W 28 35 15 19 1002.2 1001.7 0.6
26/06:15pm 10.4 4.4 7.1 80 1.6 W 28 50 15 27 1001.8 1001.4 0.6
26/06:00pm 10.7 4.4 7.2 79 1.7 W 30 41 16 22 1001.8 1001.4 0.6
26/05:30pm 11.0 4.1 7.3 78 1.8 W 33 48 18 26 1001.5 1001.1 0.6
26/05:00pm 11.2 3.9 7.1 76 2.0 W 35 50 19 27 1000.9 1000.4 0.6
26/04:36pm 11.3 5.0 7.2 76 2.0 W 30 48 16 26 1000.8 1000.3 0.6
26/04:30pm 11.3 4.3 7.0 75 2.1 W 33 50 18 27 1000.8 1000.3 0.6
26/04:02pm 11.9 4.2 7.2 73 2.3 W 37 56 20 30 1000.7 1000.2 0.6
26/04:00pm 11.8 3.7 7.1 73 2.4 W 39 56 21 30 1000.6 1000.1 0.6
26/03:49pm 11.8 5.0 6.9 72 2.4 W 32 50 17 27 1000.8 1000.3 0.6
26/03:30pm 12.0 4.7 7.1 72 2.4 W 35 52 19 28 1000.8 1000.3 0.6
26/03:02pm 12.1 4.8 7.0 71 2.5 W 35 59 19 32 1000.6 1000.1 0.6
26/03:00pm 12.2 4.9 7.3 72 2.5 W 35 48 19 26 1000.7 1000.2 0.6
26/02:33pm 12.3 5.3 6.8 69 2.7 WNW 33 54 18 29 1000.8 1000.3 0.6
26/02:30pm 12.5 5.7 7.0 69 2.7 W 32 46 17 25 1000.8 1000.3 0.6
26/02:00pm 12.5 6.5 7.0 69 2.8 WNW 28 41 15 22 1001.0 1000.5 0.6
26/01:33pm 12.6 6.3 7.3 70 2.7 WNW 30 48 16 26 1001.4 1001.0 0.6
26/01:30pm 12.6 6.6 7.1 69 2.8 WNW 28 43 15 23 1001.5 1001.1 0.6
26/01:00pm 12.3 5.3 7.0 70 2.7 WNW 33 54 18 29 1002.2 1001.7 0.6
26/12:30pm 12.3 6.6 8.2 76 2.1 WNW 28 50 15 27 1002.8 1002.4 0.6
26/12:28pm 12.1 6.3 7.8 75 2.2 WNW 28 50 15 27 1002.7 1002.3 0.6
26/12:00pm 11.1 8.1 10.5 96 0.3 WNW 17 22 9 12 1003.4 1003.0 0.6
26/11:30am 10.3 8.1 9.5 95 0.4 NW 11 17 6 9 1004.0 1003.6 0.4
26/11:26am 10.0 8.1 9.1 94 0.5 NW 9 15 5 8 1004.0 1003.6 0.4
26/11:16am 9.9 7.6 9.1 95 0.4 NNW 11 15 6 8 1004.2 1003.8 0.4
26/11:00am 9.5 6.4 7.1 85 1.2 NNW 13 17 7 9 1004.4 1004.0 0.2
26/10:30am 9.8 6.2 6.9 82 1.4 N 15 19 8 10 1005.4 1005.0 0.2
26/10:00am 9.9 7.0 6.4 79 1.7 NNW 11 17 6 9 1005.8 1005.4 0.0
26/09:30am 9.9 5.9 8.2 89 0.9 N 19 24 10 13 1006.0 1005.6 0.0
26/09:00am 8.8 6.4 8.7 99 0.1 N 11 15 6 8 1006.0 1005.6 0.4
26/08:30am 8.2 5.7 8.1 99 0.0 NNE 11 13 6 7 1006.4 1006.1 0.4
26/08:00am 8.0 6.3 7.7 98 0.1 NW 6 7 3 4 1007.2 1006.8 0.4
26/07:55am 8.0 6.3 7.7 98 0.1 NW 6 9 3 5 1007.5 1007.2 0.4
26/07:30am 8.1 4.9 7.0 93 0.5 NW 13 20 7 11 1008.3 1008.0 0.2
26/07:17am 8.8 5.7 5.5 80 1.6 WNW 11 17 6 9 1008.5 1008.1 0.0
26/07:00am 9.0 5.7 4.8 75 2.0 WNW 11 15 6 8 1008.1 1007.8 0.0
26/06:30am 8.8 5.1 4.6 75 1.9 NW 13 19 7 10 1008.3 1008.0 0.0
26/06:00am 8.8 5.5 4.4 74 2.0 NW 11 19 6 10 1008.7 1008.4 0.0
26/05:30am 8.8 5.1 4.2 73 2.1 NW 13 19 7 10 1008.8 1008.5 0.0
26/05:00am 9.1 3.3 4.3 72 2.2 NW 24 33 13 18 1009.2 1008.9 0.0
26/04:30am 9.1 4.7 4.7 74 2.0 NW 17 24 9 13 1010.0 1009.7 0.0
26/04:00am 8.6 5.3 4.6 76 1.8 NNW 11 17 6 9 1009.8 1009.5 0.0
26/03:30am 8.7 4.6 4.5 75 1.9 NW 15 20 8 11 1010.1 1009.8 0.0
26/03:00am 8.6 5.4 5.0 78 1.7 NW 11 17 6 9 1010.5 1010.2 0.0
26/02:30am 8.2 5.4 5.1 81 1.4 WNW 9 13 5 7 1010.9 1010.6 0.0
26/02:00am 8.0 5.9 6.5 90 0.7 SW 7 9 4 5 1011.6 1011.3 0.0
26/01:30am 8.3 7.1 4.7 78 1.7 CALM 0 4 0 2 1011.4 1011.2 0.0
26/01:00am 8.2 6.2 4.6 78 1.7 NW 4 6 2 3 1011.7 1011.4 0.0
26/12:30am 8.1 5.2 4.7 79 1.6 NW 9 11 5 6 1012.1 1011.8 0.0
26/12:00am 8.3 5.8 4.7 78 1.7 WSW 7 11 4 6 1012.8 1012.6 0.0
 
Date/Time
EST
Temp
°C
App
Temp
°C
Dew
Point
Rel
Hum
%
Delta-T
°C
Wind Press
QNH
hPa
Press
MSL
hPa
Rain
since 9 am
mm
Dir
 
Spd
km/h
Gust
km/h
Spd
kts
Gust
kts
25/11:30pm 8.3 6.3 4.3 76 1.8 NW 4 6 2 3 1013.5 1013.2 0.0
25/11:00pm 8.8 6.4 4.4 74 2.0 WNW 6 9 3 5 1013.5 1013.2 0.0
25/10:30pm 9.0 6.1 4.6 74 2.0 WNW 9 15 5 8 1013.7 1013.5 0.0
25/10:00pm 9.0 4.9 4.6 74 2.0 W 15 19 8 10 1013.7 1013.5 0.0
25/09:30pm 9.0 4.0 4.6 74 2.0 WSW 20 28 11 15 1014.1 1013.9 0.0
25/09:00pm 9.1 4.1 4.5 73 2.1 W 20 28 11 15 1014.1 1013.9 0.0
25/08:30pm 9.2 3.8 4.4 72 2.2 W 22 30 12 16 1014.2 1014.0 0.0
25/08:00pm 9.1 3.7 4.5 73 2.1 W 22 32 12 17 1014.4 1014.2 0.0
25/07:30pm 9.1 4.0 4.1 71 2.3 W 20 28 11 15 1014.3 1014.1 0.0
25/07:00pm 9.1 3.6 3.9 70 2.4 W 22 32 12 17 1014.3 1014.1 0.0
25/06:30pm 9.3 4.2 3.9 69 2.5 W 20 30 11 16 1014.3 1014.1 0.0
25/06:00pm 9.4 4.2 3.6 67 2.6 W 20 28 11 15 1014.6 1014.4 0.0
25/05:30pm 9.8 5.1 3.1 63 3.0 W 17 22 9 12 1014.4 1014.2 0.0
25/05:00pm 10.7 5.3 2.5 57 3.7 W 20 32 11 17 1014.4 1014.2 0.0
25/04:30pm 11.7 6.1 1.1 48 4.6 WNW 20 28 11 15 1014.0 1013.8 0.0
25/04:00pm 12.4 6.4 0.8 45 5.1 W 22 32 12 17 1014.2 1014.0 0.0

Other Formats:

Comma delimited format used in spreadsheet applications
http://www.bom.gov.au/fwo/IDN60801/IDN60801.94746.axf

JavaScript Object Notation format (JSON) in row-major order
http://www.bom.gov.au/fwo/IDN60801/IDN60801.94746.json